createdAt,value
2018-11-13T00:01:47.075Z,3.20
2018-11-13T00:04:17.098Z,4.47
2018-11-13T00:06:47.022Z,3.63
2018-11-13T00:09:18.162Z,3.87
2018-11-13T00:11:49.294Z,2.97
2018-11-13T00:14:19.128Z,2.80
2018-11-13T00:16:50.202Z,3.40
2018-11-13T00:19:20.140Z,3.70
2018-11-13T00:21:50.321Z,5.17
2018-11-13T00:24:21.268Z,7.83
2018-11-13T00:26:57.395Z,4.13
2018-11-13T00:29:27.869Z,5.70
2018-11-13T00:31:58.214Z,3.50
2018-11-13T00:34:29.127Z,3.33
2018-11-13T00:36:58.584Z,2.73
2018-11-13T00:39:30.327Z,5.80
2018-11-13T00:42:00.285Z,3.00
2018-11-13T00:44:31.085Z,2.50
2018-11-13T00:47:00.466Z,3.20
2018-11-13T00:49:31.395Z,3.13
2018-11-13T00:52:00.727Z,4.30
2018-11-13T00:54:32.430Z,4.63
2018-11-13T00:57:03.460Z,3.13
2018-11-13T00:59:33.959Z,4.37
2018-11-13T01:02:03.593Z,4.23
2018-11-13T01:04:35.290Z,2.60
2018-11-13T01:07:08.431Z,4.30
2018-11-13T01:09:39.478Z,7.80
2018-11-13T01:12:09.484Z,4.17
2018-11-13T01:14:40.560Z,4.80
2018-11-13T01:17:10.971Z,3.77
2018-11-13T01:19:42.136Z,5.20
2018-11-13T01:22:12.468Z,6.20
2018-11-13T01:24:45.342Z,4.47
2018-11-13T01:27:14.774Z,4.50
2018-11-13T01:29:51.931Z,6.50
2018-11-13T01:32:23.999Z,4.53
2018-11-13T01:34:53.934Z,5.83
2018-11-13T01:37:23.842Z,6.23
2018-11-13T01:39:55.212Z,6.73
2018-11-13T01:42:25.211Z,11.40
2018-11-13T01:44:55.569Z,6.13
2018-11-13T01:47:29.038Z,4.13
2018-11-13T01:49:59.590Z,8.90
2018-11-13T01:52:29.615Z,7.83
2018-11-13T01:55:00.119Z,3.70
2018-11-13T01:57:30.762Z,8.43
2018-11-13T02:00:00.291Z,10.80
2018-11-13T02:02:30.062Z,11.00
2018-11-13T02:04:59.715Z,10.40
2018-11-13T02:07:29.533Z,9.93
2018-11-13T02:10:00.151Z,8.53
2018-11-13T02:12:30.827Z,7.97
2018-11-13T02:15:00.175Z,6.70
2018-11-13T02:17:31.706Z,4.20
2018-11-13T02:20:01.076Z,2.87
2018-11-13T02:22:32.755Z,3.07
2018-11-13T02:25:03.854Z,1.80
2018-11-13T02:27:33.734Z,6.07
2018-11-13T02:30:04.226Z,4.20
2018-11-13T02:32:35.823Z,6.50
2018-11-13T02:35:08.502Z,8.87
2018-11-13T02:37:39.599Z,4.30
2018-11-13T02:40:13.843Z,3.20
2018-11-13T02:42:44.724Z,2.30
2018-11-13T02:45:17.966Z,5.73
2018-11-13T02:47:47.962Z,5.40
2018-11-13T02:50:20.075Z,2.50
2018-11-13T02:52:51.788Z,2.60
2018-11-13T02:55:23.850Z,3.33
2018-11-13T02:57:56.016Z,3.80
2018-11-13T03:00:26.958Z,5.70
2018-11-13T03:02:57.222Z,7.33
2018-11-13T03:05:26.984Z,6.30
2018-11-13T03:08:00.231Z,7.53
2018-11-13T03:10:30.311Z,5.30
2018-11-13T03:13:01.350Z,5.40
2018-11-13T03:15:31.810Z,7.90
2018-11-13T03:18:02.143Z,5.27
2018-11-13T03:20:32.674Z,9.50
2018-11-13T03:23:03.255Z,4.13
2018-11-13T03:25:33.782Z,7.43
2018-11-13T03:28:03.999Z,4.00
2018-11-13T03:30:34.074Z,2.40
2018-11-13T03:33:04.190Z,2.53
2018-11-13T03:35:35.249Z,2.80
2018-11-13T03:38:06.422Z,2.63
2018-11-13T03:40:36.116Z,3.37
2018-11-13T03:43:07.072Z,3.23
2018-11-13T03:45:37.275Z,4.07
2018-11-13T03:48:07.311Z,3.93
2018-11-13T03:50:38.338Z,7.17
2018-11-13T03:53:08.168Z,3.17
2018-11-13T03:55:39.389Z,3.33
2018-11-13T03:58:10.443Z,5.10
2018-11-13T04:00:40.474Z,3.33
2018-11-13T04:03:10.861Z,1.80
2018-11-13T04:05:41.245Z,4.80
2018-11-13T04:08:12.359Z,4.03
2018-11-13T04:10:42.615Z,2.93
2018-11-13T04:13:12.992Z,2.43
2018-11-13T04:15:43.246Z,2.43
2018-11-13T04:18:13.303Z,2.23
2018-11-13T04:20:49.074Z,1.73
2018-11-13T04:23:18.426Z,2.67
2018-11-13T04:25:49.283Z,10.43
2018-11-13T04:28:19.366Z,4.23
2018-11-13T04:30:49.254Z,8.67
2018-11-13T04:33:23.418Z,12.87
2018-11-13T04:35:53.276Z,14.07
2018-11-13T04:38:23.776Z,5.97
2018-11-13T04:40:54.622Z,4.40
2018-11-13T04:43:24.542Z,4.67
2018-11-13T04:45:55.378Z,6.07
2018-11-13T04:48:25.726Z,6.97
2018-11-13T04:50:56.560Z,4.10
2018-11-13T04:53:26.491Z,4.30
2018-11-13T04:55:57.419Z,3.93
2018-11-13T04:58:27.516Z,4.03
2018-11-13T05:00:57.462Z,4.13
2018-11-13T05:03:28.435Z,4.50
2018-11-13T05:05:58.136Z,3.33
2018-11-13T05:08:34.139Z,3.80
2018-11-13T05:11:07.859Z,4.93
2018-11-13T05:13:39.513Z,4.60
2018-11-13T05:16:10.125Z,3.80
2018-11-13T05:18:39.559Z,3.47
2018-11-13T05:21:10.447Z,4.03
2018-11-13T05:23:44.466Z,5.97
2018-11-13T05:26:15.618Z,7.43
2018-11-13T05:28:46.170Z,8.10
2018-11-13T05:31:17.319Z,8.53
2018-11-13T05:33:52.959Z,6.10
2018-11-13T05:36:24.285Z,3.73
2018-11-13T05:38:53.641Z,4.10
2018-11-13T05:41:24.655Z,3.83
2018-11-13T05:43:54.526Z,3.53
2018-11-13T05:46:25.617Z,9.33
2018-11-13T05:48:57.126Z,18.90
2018-11-13T05:51:26.742Z,7.53
2018-11-13T05:53:57.715Z,7.40
2018-11-13T05:56:34.235Z,6.30
2018-11-13T05:59:03.840Z,6.60
2018-11-13T06:01:34.709Z,4.00
2018-11-13T06:04:05.374Z,8.03
2018-11-13T06:06:35.892Z,3.67
2018-11-13T06:09:09.407Z,4.20
2018-11-13T06:11:39.663Z,6.23
2018-11-13T06:14:15.924Z,2.73
2018-11-13T06:16:45.817Z,4.40
2018-11-13T06:22:20.166Z,3.60
2018-11-13T06:24:50.845Z,3.87
2018-11-13T06:27:21.136Z,2.47
2018-11-13T06:29:50.758Z,5.53
2018-11-13T06:32:21.966Z,4.53
2018-11-13T06:34:53.863Z,4.10
2018-11-13T06:37:25.911Z,7.23
2018-11-13T06:39:55.950Z,3.60
2018-11-13T06:42:27.063Z,8.57
2018-11-13T06:44:56.427Z,3.63
2018-11-13T06:47:28.110Z,4.10
2018-11-13T06:50:00.419Z,3.40
2018-11-13T06:52:32.138Z,4.03
2018-11-13T06:55:05.055Z,7.80
2018-11-13T06:57:35.943Z,10.17
2018-11-13T07:00:12.999Z,5.20
2018-11-13T07:02:43.140Z,6.33
2018-11-13T07:05:15.505Z,4.23
2018-11-13T07:07:47.262Z,4.40
2018-11-13T07:10:19.664Z,3.50
2018-11-13T07:12:54.671Z,3.50
2018-11-13T07:15:27.175Z,2.80
2018-11-13T07:18:00.048Z,4.50
2018-11-13T07:20:35.610Z,3.90
2018-11-13T07:23:05.148Z,4.30
2018-11-13T07:25:36.063Z,3.23
2018-11-13T07:28:06.292Z,7.30
2018-11-13T07:30:37.147Z,4.30
2018-11-13T07:33:08.058Z,3.20
2018-11-13T07:35:43.907Z,6.60
2018-11-13T07:38:18.110Z,3.97
2018-11-13T07:40:49.123Z,4.10
2018-11-13T07:43:19.230Z,4.80
2018-11-13T07:45:49.366Z,3.97
2018-11-13T07:48:19.438Z,4.27
2018-11-13T07:50:52.970Z,4.53
2018-11-13T07:53:23.304Z,8.77
2018-11-13T07:55:54.238Z,6.33
2018-11-13T07:58:24.328Z,4.60
2018-11-13T08:00:55.132Z,4.47
2018-11-13T08:03:33.364Z,4.20
2018-11-13T08:06:10.303Z,4.80
2018-11-13T08:08:42.286Z,4.27
2018-11-13T08:11:15.599Z,4.57
2018-11-13T08:13:46.235Z,9.30
2018-11-13T08:16:21.043Z,9.73
2018-11-13T08:18:50.445Z,5.03
2018-11-13T08:21:20.472Z,4.13
2018-11-13T08:23:51.588Z,3.83
2018-11-13T08:26:22.640Z,4.63
2018-11-13T08:28:52.640Z,4.50
2018-11-13T08:31:23.551Z,3.43
2018-11-13T08:33:54.376Z,4.67
2018-11-13T08:36:24.491Z,4.00
2018-11-13T08:38:55.425Z,7.63
2018-11-13T08:41:26.610Z,3.90
2018-11-13T08:43:56.839Z,3.83
2018-11-13T08:46:27.534Z,3.17
2018-11-13T08:48:58.514Z,2.80
2018-11-13T08:51:31.739Z,3.13
2018-11-13T08:54:01.195Z,2.80
2018-11-13T08:56:32.565Z,3.27
2018-11-13T08:59:04.749Z,3.03
2018-11-13T09:01:40.177Z,3.23
2018-11-13T09:04:19.426Z,3.90
2018-11-13T09:06:52.539Z,3.80
2018-11-13T09:09:24.534Z,3.90
2018-11-13T09:11:54.598Z,3.50
2018-11-13T09:14:24.918Z,4.67
2018-11-13T09:16:54.747Z,2.97
2018-11-13T09:19:24.741Z,4.53
2018-11-13T09:21:55.835Z,3.90
2018-11-13T09:24:25.919Z,4.73
2018-11-13T09:26:55.846Z,3.70
2018-11-13T09:29:26.698Z,4.20
2018-11-13T09:31:58.589Z,4.10
2018-11-13T09:34:30.292Z,4.83
2018-11-13T09:37:00.819Z,4.83
2018-11-13T09:39:31.667Z,4.70
2018-11-13T09:42:01.099Z,5.17
2018-11-13T09:44:31.531Z,6.40
2018-11-13T09:47:00.950Z,5.63
2018-11-13T09:49:31.979Z,5.17
2018-11-13T09:52:01.375Z,8.63
2018-11-13T09:54:32.775Z,4.93
2018-11-13T09:57:04.011Z,10.40
2018-11-13T09:59:34.916Z,5.80
2018-11-13T10:02:08.603Z,4.70
2018-11-13T10:04:39.225Z,6.10
2018-11-13T10:07:10.750Z,3.90
2018-11-13T10:09:43.585Z,6.73
2018-11-13T10:12:12.980Z,6.23
2018-11-13T10:14:43.807Z,5.23
2018-11-13T10:17:17.788Z,4.53
2018-11-13T10:19:58.091Z,4.93
2018-11-13T10:22:27.991Z,4.43
2018-11-13T10:24:57.890Z,5.57
2018-11-13T10:27:34.866Z,6.23
2018-11-13T10:30:06.775Z,5.27
2018-11-13T10:32:39.353Z,6.93
2018-11-13T10:35:11.306Z,4.57
2018-11-13T10:37:43.143Z,4.13
2018-11-13T10:40:16.389Z,4.40
2018-11-13T10:42:48.525Z,4.30
2018-11-13T10:45:23.766Z,4.10
2018-11-13T10:47:54.104Z,4.60
2018-11-13T10:50:26.339Z,4.67
2018-11-13T10:52:56.404Z,4.83
2018-11-13T10:55:29.705Z,4.50
2018-11-13T10:58:00.062Z,9.63
2018-11-13T11:00:36.306Z,9.50
2018-11-13T11:05:14.971Z,4.13
2018-11-13T11:07:48.423Z,5.70
2018-11-13T11:10:19.263Z,4.73
2018-11-13T11:12:50.068Z,6.77
2018-11-13T11:15:22.972Z,10.10
2018-11-13T11:18:01.011Z,11.70
2018-11-13T11:20:30.764Z,7.63
2018-11-13T11:23:01.151Z,17.53
2018-11-13T11:25:32.055Z,14.20
2018-11-13T11:28:02.231Z,13.90
2018-11-13T11:30:32.285Z,17.40
2018-11-13T11:33:01.720Z,18.00
2018-11-13T11:35:33.387Z,14.23
2018-11-13T11:38:04.477Z,16.93
2018-11-13T11:40:34.291Z,16.63
2018-11-13T11:43:04.447Z,20.67
2018-11-13T11:45:36.290Z,25.00
2018-11-13T11:48:06.618Z,22.63
2018-11-13T11:50:36.459Z,31.47
2018-11-13T11:53:07.406Z,22.93
2018-11-13T11:55:38.539Z,24.00
2018-11-13T11:58:08.937Z,21.40
2018-11-13T12:00:39.900Z,23.07
2018-11-13T12:03:10.135Z,22.77
2018-11-13T12:05:43.286Z,25.63
2018-11-13T12:08:17.486Z,27.60
2018-11-13T12:10:49.271Z,21.87
2018-11-13T12:13:21.462Z,19.50
2018-11-13T12:15:52.531Z,20.00
2018-11-13T12:18:23.431Z,24.03
2018-11-13T12:20:53.474Z,19.63
2018-11-13T12:23:24.431Z,23.27
2018-11-13T12:25:58.562Z,20.30
2018-11-13T12:28:29.717Z,24.17
2018-11-13T12:30:59.563Z,19.70
2018-11-13T12:33:30.539Z,21.30
2018-11-13T12:36:01.247Z,23.70
2018-11-13T12:38:34.397Z,19.87
2018-11-13T12:41:04.930Z,24.17
2018-11-13T12:43:35.682Z,21.37
2018-11-13T12:46:06.515Z,23.40
2018-11-13T12:48:42.688Z,36.83
2018-11-13T12:54:12.858Z,22.60
2018-11-13T12:56:47.523Z,18.57
2018-11-13T12:59:17.690Z,26.80
2018-11-13T13:01:48.554Z,24.93
2018-11-13T13:04:25.023Z,25.80
2018-11-13T13:06:55.823Z,21.07
2018-11-13T13:09:29.454Z,32.97
2018-11-13T13:12:01.985Z,20.10
2018-11-13T13:14:34.032Z,22.90
2018-11-13T13:17:04.966Z,25.90
2018-11-13T13:19:35.687Z,23.60
2018-11-13T13:22:05.242Z,23.30
2018-11-13T13:24:35.719Z,28.50
2018-11-13T13:27:10.851Z,25.43
2018-11-13T13:29:41.705Z,25.13
2018-11-13T13:32:16.518Z,28.60
2018-11-13T13:34:49.978Z,30.47
2018-11-13T13:37:21.810Z,22.50
2018-11-13T13:39:55.074Z,25.23
2018-11-13T13:42:25.846Z,24.53
2018-11-13T13:44:56.955Z,22.10
2018-11-13T13:47:27.850Z,26.70
2018-11-13T13:49:57.994Z,27.87
2018-11-13T13:52:28.863Z,23.93
2018-11-13T13:54:58.846Z,22.67
2018-11-13T13:57:30.645Z,24.07
2018-11-13T14:00:01.465Z,23.80
2018-11-13T14:02:30.614Z,24.13
2018-11-13T14:05:00.994Z,22.10
2018-11-13T14:07:32.062Z,25.10
2018-11-13T14:10:01.534Z,23.77
2018-11-13T14:12:32.879Z,18.13
2018-11-13T14:15:03.521Z,26.20
2018-11-13T14:17:34.135Z,24.37
2018-11-13T14:20:10.680Z,21.17
2018-11-13T14:22:42.272Z,23.10
2018-11-13T14:25:14.815Z,23.30
2018-11-13T14:27:46.362Z,24.50
2018-11-13T14:30:18.649Z,22.83
2018-11-13T14:32:50.598Z,21.40
2018-11-13T14:35:20.199Z,17.60
2018-11-13T14:37:51.187Z,23.40
2018-11-13T14:40:59.610Z,20.00
2018-11-13T14:43:29.084Z,25.13
2018-11-13T14:46:00.219Z,24.17
2018-11-13T14:48:30.223Z,22.40
2018-11-13T14:51:01.516Z,23.13
2018-11-13T14:53:32.385Z,19.17
2018-11-13T14:56:01.851Z,17.77
2018-11-13T14:58:33.298Z,20.03
2018-11-13T15:01:06.174Z,18.83
2018-11-13T15:03:37.265Z,17.67
2018-11-13T15:06:08.476Z,17.60
2018-11-13T15:08:38.443Z,19.80
2018-11-13T15:11:08.862Z,19.40
2018-11-13T15:13:39.433Z,17.43
2018-11-13T15:16:11.369Z,19.00
2018-11-13T15:18:42.246Z,19.03
2018-11-13T15:21:14.986Z,17.70
2018-11-13T15:23:44.979Z,17.13
2018-11-13T15:26:15.556Z,17.87
2018-11-13T15:28:46.122Z,16.93
2018-11-13T15:31:19.168Z,16.47
2018-11-13T15:33:50.399Z,15.63
2018-11-13T15:36:21.334Z,14.37
2018-11-13T15:38:54.267Z,19.43
2018-11-13T15:41:27.451Z,18.80
2018-11-13T15:43:58.294Z,17.20
2018-11-13T15:46:32.354Z,14.23
2018-11-13T15:49:01.828Z,14.87
2018-11-13T15:51:34.614Z,13.47
2018-11-13T15:54:04.549Z,13.50
2018-11-13T15:56:37.686Z,15.97
2018-11-13T15:59:10.069Z,15.50
2018-11-13T16:01:39.414Z,13.93
2018-11-13T16:04:10.513Z,17.33
2018-11-13T16:06:40.460Z,18.90
2018-11-13T16:09:12.853Z,18.43
2018-11-13T16:11:42.467Z,12.13
2018-11-13T16:14:12.971Z,18.10
2018-11-13T16:16:43.459Z,13.10
2018-11-13T16:19:13.795Z,13.00
2018-11-13T16:21:44.582Z,14.90
2018-11-13T16:24:14.671Z,12.97
2018-11-13T16:26:44.652Z,15.10
2018-11-13T16:29:14.498Z,15.57
2018-11-13T16:31:45.613Z,15.40
2018-11-13T16:34:16.803Z,18.10
2018-11-13T16:36:46.842Z,15.00
2018-11-13T16:39:17.875Z,16.10
2018-11-13T16:41:48.645Z,17.70
2018-11-13T16:44:18.872Z,18.17
2018-11-13T16:46:49.615Z,16.93
2018-11-13T16:49:19.624Z,21.63
2018-11-13T16:51:50.699Z,20.63
2018-11-13T16:54:20.784Z,24.50
2018-11-13T16:56:57.173Z,24.33
2018-11-13T16:59:28.899Z,26.97
2018-11-13T17:01:59.098Z,28.63
2018-11-13T17:04:29.923Z,28.33
2018-11-13T17:06:59.809Z,29.27
2018-11-13T17:09:30.851Z,32.93
2018-11-13T17:12:01.886Z,30.40
2018-11-13T17:14:37.832Z,28.73
2018-11-13T17:17:07.270Z,32.53
2018-11-13T17:19:38.937Z,28.33
2018-11-13T17:22:09.761Z,26.63
2018-11-13T17:24:41.151Z,24.13
2018-11-13T17:27:10.998Z,27.50
2018-11-13T17:29:42.130Z,24.90
2018-11-13T17:32:15.149Z,23.17
2018-11-13T17:34:45.828Z,22.83
2018-11-13T17:37:16.234Z,29.87
2018-11-13T17:39:46.619Z,23.37
2018-11-13T17:42:16.830Z,29.03
2018-11-13T17:44:47.068Z,20.37
2018-11-13T17:47:17.811Z,17.80
2018-11-13T17:49:48.118Z,20.53
2018-11-13T17:52:18.766Z,15.97
2018-11-13T17:54:49.038Z,19.20
2018-11-13T17:57:23.195Z,18.33
2018-11-13T17:59:52.928Z,14.53
2018-11-13T18:02:26.202Z,16.83
2018-11-13T18:04:56.898Z,16.10
2018-11-13T18:07:27.047Z,15.00
2018-11-13T18:10:01.097Z,12.03
2018-11-13T18:12:31.195Z,15.00
2018-11-13T18:15:01.137Z,11.70
2018-11-13T18:17:34.995Z,14.53
2018-11-13T18:20:04.993Z,10.83
2018-11-13T18:22:36.183Z,11.97
2018-11-13T18:25:08.770Z,14.93
2018-11-13T18:27:41.524Z,13.47
2018-11-13T18:30:14.673Z,13.90
2018-11-13T18:32:44.771Z,22.87
2018-11-13T18:35:19.825Z,14.47
2018-11-13T18:40:50.638Z,14.20
2018-11-13T18:43:21.512Z,14.23
2018-11-13T18:45:53.511Z,16.30
2018-11-13T18:48:23.627Z,15.23
2018-11-13T18:50:54.520Z,12.80
2018-11-13T18:53:24.535Z,14.70
2018-11-13T18:55:55.575Z,13.53
2018-11-13T18:58:30.246Z,11.77
2018-11-13T19:01:01.837Z,15.03
2018-11-13T19:03:33.318Z,17.40
2018-11-13T19:06:04.091Z,13.30
2018-11-13T19:08:37.814Z,16.00
2018-11-13T19:11:07.732Z,17.57
2018-11-13T19:13:39.456Z,20.13
2018-11-13T19:16:12.642Z,13.07
2018-11-13T19:18:47.882Z,13.70
2018-11-13T19:21:22.271Z,13.47
2018-11-13T19:23:55.306Z,14.30
2018-11-13T19:26:27.894Z,16.40
2018-11-13T19:28:59.516Z,14.10
2018-11-13T19:31:31.704Z,15.17
2018-11-13T19:34:02.295Z,15.60
2018-11-13T19:36:33.295Z,17.60
2018-11-13T19:39:03.858Z,12.53
2018-11-13T19:41:34.303Z,13.57
2018-11-13T19:44:06.830Z,12.10
2018-11-13T19:46:36.950Z,11.77
2018-11-13T19:49:09.249Z,14.27
2018-11-13T19:51:42.898Z,12.17
2018-11-13T19:57:12.445Z,15.73
2018-11-13T19:59:43.837Z,14.07
2018-11-13T20:02:14.471Z,13.00
2018-11-13T20:04:47.994Z,12.40
2018-11-13T20:07:18.938Z,11.37
2018-11-13T20:09:50.046Z,11.20
2018-11-13T20:12:20.068Z,10.70
2018-11-13T20:14:52.953Z,11.50
2018-11-13T20:17:23.927Z,11.60
2018-11-13T20:19:54.038Z,12.23
2018-11-13T20:22:26.007Z,13.00
2018-11-13T20:24:58.006Z,14.10
2018-11-13T20:27:29.122Z,21.30
2018-11-13T20:29:59.851Z,13.70
2018-11-13T20:32:30.851Z,15.20
2018-11-13T20:35:01.099Z,13.90
2018-11-13T20:37:31.083Z,14.30
2018-11-13T20:40:02.024Z,15.70
2018-11-13T20:42:33.911Z,15.90
2018-11-13T20:45:07.938Z,20.77
2018-11-13T20:50:38.573Z,20.83
2018-11-13T20:53:08.007Z,13.37
2018-11-13T20:55:40.770Z,13.40
2018-11-13T20:58:16.829Z,12.10
2018-11-13T21:00:47.929Z,14.20
2018-11-13T21:03:17.991Z,13.30
2018-11-13T21:05:50.187Z,10.63
2018-11-13T21:08:22.104Z,11.00
2018-11-13T21:10:58.408Z,11.20
2018-11-13T21:13:28.971Z,8.50
2018-11-13T21:15:59.936Z,8.10
2018-11-13T21:21:29.768Z,11.03
2018-11-13T21:24:04.879Z,10.70
2018-11-13T21:26:35.019Z,10.73
2018-11-13T21:29:10.726Z,9.90
2018-11-13T21:31:42.162Z,19.53
2018-11-13T21:34:13.723Z,15.40
2018-11-13T21:36:44.061Z,9.20
2018-11-13T21:39:14.079Z,13.43
2018-11-13T21:41:45.074Z,10.97
2018-11-13T21:44:15.231Z,18.70
2018-11-13T21:46:46.051Z,85.13
2018-11-13T21:49:23.127Z,26.67
2018-11-13T21:54:52.906Z,19.70
2018-11-13T21:57:28.029Z,9.20
2018-11-13T21:59:59.129Z,9.53
2018-11-13T22:02:29.162Z,9.47
2018-11-13T22:05:00.530Z,11.57
2018-11-13T22:07:31.254Z,11.57
2018-11-13T22:10:01.967Z,11.90
2018-11-13T22:12:31.364Z,9.60
2018-11-13T22:15:02.421Z,8.33
2018-11-13T22:17:32.210Z,10.63
2018-11-13T22:20:02.210Z,8.20
2018-11-13T22:22:36.219Z,8.43
2018-11-13T22:25:11.527Z,9.67
2018-11-13T22:27:45.475Z,10.97
2018-11-13T22:30:21.829Z,11.60
2018-11-13T22:32:53.406Z,11.03
2018-11-13T22:35:23.605Z,9.67
2018-11-13T22:37:54.626Z,9.50
2018-11-13T22:40:27.739Z,12.93
2018-11-13T22:42:59.460Z,16.03
2018-11-13T22:45:30.841Z,12.30
2018-11-13T22:48:02.278Z,9.57
2018-11-13T22:50:34.360Z,10.93
2018-11-13T22:53:06.291Z,12.13
2018-11-13T22:55:37.523Z,12.33
2018-11-13T22:58:08.315Z,11.50
2018-11-13T23:00:48.705Z,11.13
2018-11-13T23:03:19.726Z,10.07
2018-11-13T23:05:50.104Z,11.63
2018-11-13T23:08:22.727Z,10.80
2018-11-13T23:10:53.554Z,10.80
2018-11-13T23:13:24.520Z,7.93
2018-11-13T23:15:54.475Z,6.50
2018-11-13T23:18:28.426Z,8.40
2018-11-13T23:20:59.571Z,8.10
2018-11-13T23:23:29.767Z,6.23
2018-11-13T23:26:00.399Z,7.47
2018-11-13T23:28:30.626Z,8.03
2018-11-13T23:31:01.376Z,7.87
2018-11-13T23:33:37.615Z,7.20
2018-11-13T23:36:08.780Z,7.63
2018-11-13T23:38:38.598Z,6.13
2018-11-13T23:41:09.716Z,5.93
2018-11-13T23:43:42.590Z,6.20
2018-11-13T23:46:16.551Z,4.50
2018-11-13T23:48:47.626Z,4.90
2018-11-13T23:51:20.766Z,10.73
2018-11-13T23:53:50.847Z,6.33
2018-11-13T23:56:21.836Z,9.97
2018-11-13T23:58:51.639Z,7.70
